createdAt,value
2018-07-19T00:01:36.009Z,59.16
2018-07-19T00:04:04.408Z,60.04
2018-07-19T00:06:33.000Z,60.05
2018-07-19T00:09:01.304Z,60.16
2018-07-19T00:11:29.647Z,59.92
2018-07-19T00:13:57.958Z,60.57
2018-07-19T00:16:26.336Z,60.24
2018-07-19T00:18:54.664Z,61.05
2018-07-19T00:21:22.995Z,60.80
2018-07-19T00:23:51.355Z,61.62
2018-07-19T00:26:19.661Z,62.01
2018-07-19T00:28:48.054Z,61.38
2018-07-19T00:31:16.380Z,61.57
2018-07-19T00:33:44.728Z,61.15
2018-07-19T00:36:13.048Z,61.66
2018-07-19T00:38:41.400Z,62.62
2018-07-19T00:41:09.752Z,62.49
2018-07-19T00:43:38.256Z,62.33
2018-07-19T00:46:06.846Z,62.91
2018-07-19T00:48:35.156Z,62.41
2018-07-19T00:51:03.505Z,62.61
2018-07-19T00:53:31.919Z,62.67
2018-07-19T00:56:00.257Z,62.77
2018-07-19T00:58:28.616Z,62.31
2018-07-19T01:00:56.947Z,62.88
2018-07-19T01:03:25.272Z,63.46
2018-07-19T01:05:53.609Z,62.95
2018-07-19T01:08:21.979Z,63.96
2018-07-19T01:10:50.337Z,63.66
2018-07-19T01:13:18.678Z,64.83
2018-07-19T01:15:46.972Z,64.06
2018-07-19T01:18:15.305Z,64.08
2018-07-19T01:20:43.633Z,64.55
2018-07-19T01:23:11.951Z,64.43
2018-07-19T01:25:40.367Z,63.81
2018-07-19T01:28:08.813Z,64.11
2018-07-19T01:30:37.201Z,64.25
2018-07-19T01:33:05.578Z,64.12
2018-07-19T01:35:33.917Z,63.68
2018-07-19T01:38:02.331Z,63.91
2018-07-19T01:40:30.693Z,63.56
2018-07-19T01:42:59.047Z,64.35
2018-07-19T01:45:27.425Z,64.09
2018-07-19T01:47:55.756Z,64.35
2018-07-19T01:50:24.084Z,64.19
2018-07-19T01:52:52.401Z,64.05
2018-07-19T01:55:20.734Z,64.43
2018-07-19T01:57:49.051Z,64.83
2018-07-19T02:00:17.406Z,64.45
2018-07-19T02:02:45.763Z,64.13
2018-07-19T02:05:14.123Z,63.67
2018-07-19T02:07:42.472Z,64.32
2018-07-19T02:10:10.864Z,64.48
2018-07-19T02:12:39.212Z,63.67
2018-07-19T02:15:07.558Z,63.67
2018-07-19T02:17:35.900Z,63.68
2018-07-19T02:20:04.233Z,64.32
2018-07-19T02:22:32.564Z,63.96
2018-07-19T02:25:01.025Z,63.56
2018-07-19T02:27:29.409Z,63.57
2018-07-19T02:29:57.773Z,64.02
2018-07-19T02:32:26.153Z,63.93
2018-07-19T02:34:54.522Z,64.66
2018-07-19T02:37:22.904Z,64.07
2018-07-19T02:39:51.233Z,64.22
2018-07-19T02:42:19.552Z,63.89
2018-07-19T02:44:47.860Z,64.47
2018-07-19T02:47:16.239Z,63.99
2018-07-19T02:49:44.631Z,64.32
2018-07-19T02:52:12.966Z,64.06
2018-07-19T02:54:41.301Z,64.52
2018-07-19T02:57:09.634Z,64.54
2018-07-19T02:59:37.952Z,64.55
2018-07-19T03:02:06.305Z,64.29
2018-07-19T03:04:34.659Z,64.85
2018-07-19T03:07:03.016Z,64.89
2018-07-19T03:09:31.409Z,64.71
2018-07-19T03:11:59.777Z,64.70
2018-07-19T03:14:28.143Z,65.38
2018-07-19T03:16:56.498Z,66.13
2018-07-19T03:19:24.791Z,65.74
2018-07-19T03:21:53.134Z,65.43
2018-07-19T03:24:21.575Z,65.83
2018-07-19T03:26:49.942Z,65.83
2018-07-19T03:29:18.327Z,65.25
2018-07-19T03:31:46.701Z,64.87
2018-07-19T03:34:15.063Z,64.78
2018-07-19T03:36:43.887Z,65.37
2018-07-19T03:39:12.535Z,65.68
2018-07-19T03:41:40.904Z,66.50
2018-07-19T03:44:09.230Z,66.62
2018-07-19T03:46:37.727Z,67.19
2018-07-19T03:49:06.077Z,67.34
2018-07-19T03:51:34.425Z,68.05
2018-07-19T03:54:02.804Z,67.27
2018-07-19T03:56:31.136Z,67.38
2018-07-19T03:58:59.484Z,67.97
2018-07-19T04:01:27.895Z,67.39
2018-07-19T04:03:56.267Z,67.55
2018-07-19T04:06:24.603Z,66.83
2018-07-19T04:08:52.967Z,66.83
2018-07-19T04:11:21.301Z,66.88
2018-07-19T04:13:49.602Z,67.81
2018-07-19T04:16:18.431Z,67.55
2018-07-19T04:18:46.782Z,66.87
2018-07-19T04:21:15.121Z,66.47
2018-07-19T04:23:43.497Z,64.61
2018-07-19T04:26:12.112Z,63.06
2018-07-19T04:28:40.450Z,61.24
2018-07-19T04:31:08.867Z,58.73
2018-07-19T04:33:37.230Z,57.46
2018-07-19T04:36:05.594Z,56.13
2018-07-19T04:38:33.936Z,54.16
2018-07-19T04:41:02.336Z,53.80
2018-07-19T04:43:30.650Z,52.81
2018-07-19T04:45:58.980Z,51.97
2018-07-19T04:48:27.346Z,51.15
2018-07-19T04:50:55.688Z,49.69
2018-07-19T04:53:24.045Z,49.14
2018-07-19T04:55:52.452Z,48.16
2018-07-19T04:58:20.839Z,47.64
2018-07-19T05:00:49.167Z,46.40
2018-07-19T05:03:17.499Z,45.93
2018-07-19T05:05:45.856Z,45.18
2018-07-19T05:08:14.214Z,44.54
2018-07-19T05:10:42.543Z,44.58
2018-07-19T05:13:10.913Z,42.77
2018-07-19T05:15:39.242Z,41.87
2018-07-19T05:18:07.657Z,41.96
2018-07-19T05:20:36.020Z,40.92
2018-07-19T05:23:04.378Z,40.52
2018-07-19T05:25:32.821Z,40.39
2018-07-19T05:28:01.195Z,40.40
2018-07-19T05:30:29.605Z,39.54
2018-07-19T05:32:57.938Z,39.72
2018-07-19T05:35:26.331Z,38.80
2018-07-19T05:37:54.686Z,39.07
2018-07-19T05:40:23.058Z,39.01
2018-07-19T05:42:51.546Z,39.31
2018-07-19T05:45:19.969Z,40.14
2018-07-19T05:47:48.324Z,39.80
2018-07-19T05:50:16.670Z,40.34
2018-07-19T05:52:45.017Z,40.44
2018-07-19T05:55:13.378Z,39.86
2018-07-19T05:57:41.710Z,40.28
2018-07-19T06:00:10.092Z,40.38
2018-07-19T06:02:42.692Z,40.95
2018-07-19T06:05:11.061Z,40.45
2018-07-19T06:07:39.377Z,41.55
2018-07-19T06:10:07.712Z,42.40
2018-07-19T06:12:36.156Z,42.37
2018-07-19T06:15:04.788Z,42.89
2018-07-19T06:17:33.163Z,42.78
2018-07-19T06:20:01.493Z,43.77
2018-07-19T06:22:29.889Z,43.68
2018-07-19T06:24:58.201Z,43.66
2018-07-19T06:27:26.607Z,44.10
2018-07-19T06:29:54.973Z,44.08
2018-07-19T06:32:23.543Z,44.39
2018-07-19T06:34:51.888Z,44.84
2018-07-19T06:37:20.394Z,45.15
2018-07-19T06:39:48.747Z,44.91
2018-07-19T06:42:17.104Z,45.81
2018-07-19T06:44:45.462Z,44.63
2018-07-19T06:47:14.231Z,45.60
2018-07-19T06:49:42.583Z,43.92
2018-07-19T06:52:11.064Z,44.50
2018-07-19T06:54:39.415Z,44.28
2018-07-19T06:57:08.031Z,43.47
2018-07-19T06:59:36.379Z,43.49
2018-07-19T07:02:04.789Z,41.35
2018-07-19T07:04:33.152Z,41.56
2018-07-19T07:07:01.489Z,40.37
2018-07-19T07:09:29.863Z,40.64
2018-07-19T07:11:58.212Z,40.15
2018-07-19T07:14:26.555Z,39.34
2018-07-19T07:16:54.882Z,39.14
2018-07-19T07:19:23.327Z,38.64
2018-07-19T07:21:51.799Z,37.02
2018-07-19T07:24:20.287Z,36.82
2018-07-19T07:26:48.617Z,37.23
2018-07-19T07:29:17.108Z,36.62
2018-07-19T07:31:45.619Z,36.44
2018-07-19T07:34:13.973Z,37.39
2018-07-19T07:36:42.280Z,36.52
2018-07-19T07:39:11.279Z,36.77
2018-07-19T07:41:39.781Z,37.07
2018-07-19T07:44:08.389Z,36.29
2018-07-19T07:46:36.627Z,35.56
2018-07-19T07:49:05.415Z,34.34
2018-07-19T07:51:34.210Z,34.11
2018-07-19T07:54:02.741Z,32.90
2018-07-19T07:56:31.069Z,34.21
2018-07-19T07:58:59.422Z,34.24
2018-07-19T08:01:27.777Z,34.49
2018-07-19T08:03:56.082Z,35.22
2018-07-19T08:06:24.475Z,34.67
2018-07-19T08:08:52.826Z,33.82
2018-07-19T08:11:21.544Z,33.58
2018-07-19T08:13:49.895Z,35.10
2018-07-19T08:16:18.214Z,33.84
2018-07-19T08:18:46.579Z,33.52
2018-07-19T08:21:14.916Z,33.16
2018-07-19T08:23:43.289Z,33.75
2018-07-19T08:26:11.614Z,33.75
2018-07-19T08:28:39.952Z,35.08
2018-07-19T08:31:08.293Z,34.23
2018-07-19T08:33:36.698Z,34.37
2018-07-19T08:36:05.191Z,34.55
2018-07-19T08:38:33.532Z,33.89
2018-07-19T08:41:01.847Z,33.80
2018-07-19T08:43:30.188Z,33.38
2018-07-19T08:45:58.536Z,34.25
2018-07-19T08:48:26.920Z,33.88
2018-07-19T08:50:55.299Z,33.15
2018-07-19T08:53:23.638Z,34.23
2018-07-19T08:55:52.052Z,35.68
2018-07-19T08:58:20.430Z,34.41
2018-07-19T09:00:48.811Z,34.14
2018-07-19T09:03:17.156Z,34.11
2018-07-19T09:05:45.538Z,33.79
2018-07-19T09:08:13.916Z,33.81
2018-07-19T09:10:42.229Z,34.96
2018-07-19T09:13:10.945Z,35.11
2018-07-19T09:15:39.249Z,36.14
2018-07-19T09:18:07.666Z,36.56
2018-07-19T09:20:36.028Z,37.39
2018-07-19T09:23:04.393Z,36.90
2018-07-19T09:25:32.743Z,36.35
2018-07-19T09:28:01.100Z,35.22
2018-07-19T09:30:29.420Z,35.74
2018-07-19T09:32:57.790Z,36.86
2018-07-19T09:35:26.287Z,35.55
2018-07-19T09:37:54.644Z,35.57
2018-07-19T09:40:23.144Z,35.95
2018-07-19T09:42:51.636Z,37.07
2018-07-19T09:45:20.047Z,37.05
2018-07-19T09:47:48.380Z,36.62
2018-07-19T09:50:16.788Z,37.73
2018-07-19T09:52:45.145Z,37.78
2018-07-19T09:55:13.483Z,37.54
2018-07-19T09:57:41.809Z,36.11
2018-07-19T10:00:10.161Z,36.15
2018-07-19T10:02:38.537Z,36.48
2018-07-19T10:05:07.005Z,36.10
2018-07-19T10:07:35.356Z,36.52
2018-07-19T10:10:03.872Z,35.91
2018-07-19T10:12:32.153Z,35.27
2018-07-19T10:15:00.507Z,35.76
2018-07-19T10:17:28.858Z,36.03
2018-07-19T10:19:57.192Z,36.12
2018-07-19T10:22:25.602Z,36.76
2018-07-19T10:24:53.902Z,37.36
2018-07-19T10:27:22.225Z,35.77
2018-07-19T10:29:50.599Z,34.38
2018-07-19T10:32:19.186Z,34.69
2018-07-19T10:34:47.310Z,34.82
2018-07-19T10:37:15.737Z,34.47
2018-07-19T10:39:44.217Z,34.83
2018-07-19T10:42:13.248Z,34.50
2018-07-19T10:44:41.596Z,36.65
2018-07-19T10:47:10.266Z,34.26
2018-07-19T10:49:38.621Z,32.37
2018-07-19T10:52:07.055Z,33.07
2018-07-19T10:54:35.418Z,34.71
2018-07-19T10:57:03.744Z,33.20
2018-07-19T10:59:32.053Z,31.95
2018-07-19T11:02:00.465Z,32.24
2018-07-19T11:04:28.936Z,31.80
2018-07-19T11:06:57.292Z,31.54
2018-07-19T11:09:25.704Z,31.89
2018-07-19T11:11:54.149Z,32.36
2018-07-19T11:14:22.661Z,32.52
2018-07-19T11:16:50.947Z,32.14
2018-07-19T11:19:19.289Z,32.29
2018-07-19T11:21:47.627Z,32.48
2018-07-19T11:24:15.937Z,31.96
2018-07-19T11:26:44.270Z,32.54
2018-07-19T11:29:12.583Z,31.91
2018-07-19T11:31:41.021Z,31.28
2018-07-19T11:34:09.377Z,31.42
2018-07-19T11:36:37.698Z,31.37
2018-07-19T11:39:08.016Z,32.41
2018-07-19T11:41:37.168Z,31.65
2018-07-19T11:44:06.188Z,32.79
2018-07-19T11:46:34.613Z,32.96
2018-07-19T11:49:02.989Z,32.54
2018-07-19T11:51:31.341Z,32.35
2018-07-19T11:53:59.671Z,32.10
2018-07-19T11:56:28.009Z,32.86
2018-07-19T11:58:56.337Z,31.66
2018-07-19T12:01:24.673Z,31.85
2018-07-19T12:03:52.992Z,33.35
2018-07-19T12:06:21.364Z,32.01
2018-07-19T12:08:49.976Z,31.08
2018-07-19T12:11:18.641Z,31.03
2018-07-19T12:13:47.363Z,31.53
2018-07-19T12:16:15.807Z,31.13
2018-07-19T12:18:44.145Z,31.05
2018-07-19T12:21:12.514Z,30.98
2018-07-19T12:23:40.823Z,31.13
2018-07-19T12:26:09.168Z,30.61
2018-07-19T12:28:37.577Z,30.71
2018-07-19T12:31:05.905Z,31.90
2018-07-19T12:33:34.256Z,31.97
2018-07-19T12:36:02.578Z,31.57
2018-07-19T12:38:30.898Z,31.58
2018-07-19T12:40:59.339Z,30.75
2018-07-19T12:43:27.686Z,30.27
2018-07-19T12:45:56.279Z,30.15
2018-07-19T12:48:24.648Z,31.33
2018-07-19T12:50:53.079Z,30.24
2018-07-19T12:53:21.431Z,31.06
2018-07-19T12:55:49.791Z,31.47
2018-07-19T12:58:18.159Z,31.50
2018-07-19T13:00:46.456Z,31.61
2018-07-19T13:03:14.802Z,31.66
2018-07-19T13:05:43.167Z,31.89
2018-07-19T13:08:11.467Z,31.75
2018-07-19T13:10:39.786Z,32.62
2018-07-19T13:13:08.352Z,32.37
2018-07-19T13:15:37.985Z,31.67
2018-07-19T13:18:06.426Z,31.38
2018-07-19T13:20:34.812Z,31.14
2018-07-19T13:23:03.135Z,31.99
2018-07-19T13:25:31.468Z,31.75
2018-07-19T13:27:59.920Z,31.66
2018-07-19T13:30:28.299Z,31.62
2018-07-19T13:32:56.646Z,30.81
2018-07-19T13:35:24.967Z,30.82
2018-07-19T13:37:53.281Z,31.57
2018-07-19T13:40:21.577Z,31.59
2018-07-19T13:42:49.923Z,31.24
2018-07-19T13:45:18.493Z,31.62
2018-07-19T13:47:46.824Z,30.87
2018-07-19T13:50:15.220Z,30.37
2018-07-19T13:52:54.958Z,31.02
2018-07-19T13:55:23.320Z,31.58
2018-07-19T13:57:52.037Z,31.59
2018-07-19T14:00:20.357Z,31.49
2018-07-19T14:02:48.686Z,31.81
2018-07-19T14:05:17.022Z,32.27
2018-07-19T14:07:45.345Z,32.64
2018-07-19T14:10:13.758Z,32.16
2018-07-19T14:12:42.132Z,31.84
2018-07-19T14:15:10.473Z,29.98
2018-07-19T14:17:38.801Z,30.85
2018-07-19T14:20:07.256Z,29.82
2018-07-19T14:22:35.591Z,30.69
2018-07-19T14:25:03.927Z,29.63
2018-07-19T14:27:32.260Z,30.99
2018-07-19T14:30:00.643Z,30.78
2018-07-19T14:32:28.988Z,31.48
2018-07-19T14:34:57.316Z,31.95
2018-07-19T14:37:25.644Z,30.95
2018-07-19T14:39:53.994Z,31.65
2018-07-19T14:42:22.348Z,31.05
2018-07-19T14:44:50.658Z,30.16
2018-07-19T14:47:19.126Z,29.86
2018-07-19T14:49:47.440Z,30.61
2018-07-19T14:52:15.790Z,30.38
2018-07-19T14:54:44.133Z,31.52
2018-07-19T14:57:12.542Z,31.94
2018-07-19T14:59:40.943Z,30.82
2018-07-19T15:02:09.355Z,32.26
2018-07-19T15:04:37.753Z,33.25
2018-07-19T15:07:06.093Z,32.36
2018-07-19T15:09:34.478Z,33.12
2018-07-19T15:12:02.802Z,32.63
2018-07-19T15:14:31.201Z,33.42
2018-07-19T15:16:59.535Z,32.93
2018-07-19T15:19:27.878Z,31.91
2018-07-19T15:21:56.299Z,31.70
2018-07-19T15:24:24.646Z,31.69
2018-07-19T15:26:53.014Z,32.26
2018-07-19T15:29:21.493Z,32.12
2018-07-19T15:31:50.623Z,31.39
2018-07-19T15:34:18.967Z,30.72
2018-07-19T15:36:47.310Z,31.74
2018-07-19T15:39:15.623Z,32.43
2018-07-19T15:41:47.581Z,32.17
2018-07-19T15:44:15.914Z,31.37
2018-07-19T15:46:44.275Z,32.05
2018-07-19T15:49:12.637Z,30.77
2018-07-19T15:51:40.981Z,30.69
2018-07-19T15:54:09.358Z,30.68
2018-07-19T15:56:37.732Z,31.35
2018-07-19T15:59:06.076Z,31.07
2018-07-19T16:01:34.452Z,30.96
2018-07-19T16:04:02.740Z,31.77
2018-07-19T16:06:31.078Z,31.23
2018-07-19T16:08:59.592Z,30.84
2018-07-19T16:11:27.952Z,31.10
2018-07-19T16:13:56.328Z,31.33
2018-07-19T16:16:24.647Z,31.01
2018-07-19T16:18:53.038Z,31.95
2018-07-19T16:21:21.373Z,31.23
2018-07-19T16:23:49.846Z,32.16
2018-07-19T16:26:18.190Z,31.81
2018-07-19T16:28:46.581Z,31.10
2018-07-19T16:31:21.875Z,31.30
2018-07-19T16:33:50.260Z,30.76
2018-07-19T16:36:18.613Z,31.21
2018-07-19T16:38:46.971Z,30.66
2018-07-19T16:41:15.315Z,30.33
2018-07-19T16:43:43.633Z,31.18
2018-07-19T16:46:12.003Z,30.73
2018-07-19T16:48:40.356Z,30.42
2018-07-19T16:51:08.753Z,30.45
2018-07-19T16:53:37.152Z,31.23
2018-07-19T16:56:05.817Z,31.22
2018-07-19T16:58:34.235Z,31.16
2018-07-19T17:01:02.812Z,30.62
2018-07-19T17:03:31.141Z,30.95
2018-07-19T17:05:59.456Z,31.39
2018-07-19T17:08:27.881Z,31.11
2018-07-19T17:10:56.199Z,30.62
2018-07-19T17:13:24.551Z,30.43
2018-07-19T17:15:52.993Z,31.06
2018-07-19T17:18:21.352Z,30.46
2018-07-19T17:20:49.751Z,30.69
2018-07-19T17:23:18.068Z,31.93
2018-07-19T17:25:46.402Z,31.52
2018-07-19T17:28:14.755Z,31.82
2018-07-19T17:30:43.211Z,31.90
2018-07-19T17:33:11.559Z,31.51
2018-07-19T17:35:40.833Z,31.76
2018-07-19T17:38:09.175Z,30.97
2018-07-19T17:40:37.601Z,30.67
2018-07-19T17:43:06.393Z,31.03
2018-07-19T17:45:35.098Z,32.06
2018-07-19T17:48:03.534Z,32.07
2018-07-19T17:50:31.932Z,32.23
2018-07-19T17:53:00.324Z,32.11
2018-07-19T17:55:28.685Z,32.71
2018-07-19T17:57:57.205Z,33.64
2018-07-19T18:00:25.606Z,33.71
2018-07-19T18:02:53.984Z,33.75
2018-07-19T18:05:22.358Z,33.01
2018-07-19T18:07:50.687Z,33.41
2018-07-19T18:10:18.999Z,33.75
2018-07-19T18:12:47.385Z,34.83
2018-07-19T18:15:15.699Z,34.29
2018-07-19T18:17:44.058Z,34.25
2018-07-19T18:20:12.445Z,34.03
2018-07-19T18:22:40.814Z,33.65
2018-07-19T18:25:09.182Z,33.73
2018-07-19T18:27:37.664Z,34.02
2018-07-19T18:30:07.333Z,33.80
2018-07-19T18:32:35.730Z,34.99
2018-07-19T18:35:04.181Z,35.24
2018-07-19T18:37:32.516Z,34.83
2018-07-19T18:40:00.941Z,35.94
2018-07-19T18:42:29.242Z,36.39
2018-07-19T18:44:57.613Z,36.12
2018-07-19T18:47:25.912Z,36.73
2018-07-19T18:49:54.217Z,37.20
2018-07-19T18:52:22.557Z,36.92
2018-07-19T18:54:50.933Z,37.01
2018-07-19T18:57:19.273Z,36.98
2018-07-19T18:59:47.662Z,37.81
2018-07-19T19:02:15.995Z,38.68
2018-07-19T19:04:44.314Z,38.49
2018-07-19T19:07:12.667Z,38.28
2018-07-19T19:09:41.019Z,39.19
2018-07-19T19:12:09.385Z,38.96
2018-07-19T19:14:37.709Z,39.31
2018-07-19T19:17:06.291Z,38.95
2018-07-19T19:19:34.707Z,39.05
2018-07-19T19:22:03.070Z,39.93
2018-07-19T19:24:31.435Z,40.17
2018-07-19T19:26:59.792Z,40.09
2018-07-19T19:29:28.113Z,40.76
2018-07-19T19:31:56.563Z,40.82
2018-07-19T19:34:24.921Z,39.98
2018-07-19T19:36:53.278Z,41.00
2018-07-19T19:39:21.634Z,40.64
2018-07-19T19:41:49.949Z,41.17
2018-07-19T19:44:25.014Z,42.11
2018-07-19T19:46:53.311Z,42.21
2018-07-19T19:49:21.657Z,41.86
2018-07-19T19:51:50.011Z,42.97
2018-07-19T19:54:18.354Z,42.82
2018-07-19T19:56:46.710Z,43.06
2018-07-19T19:59:20.909Z,43.00
2018-07-19T20:01:49.288Z,43.67
2018-07-19T20:04:17.639Z,44.04
2018-07-19T20:06:45.991Z,44.75
2018-07-19T20:09:14.316Z,44.98
2018-07-19T20:11:42.645Z,45.59
2018-07-19T20:14:10.981Z,46.95
2018-07-19T20:16:39.325Z,46.79
2018-07-19T20:19:07.705Z,46.48
2018-07-19T20:21:36.116Z,45.67
2018-07-19T20:24:04.445Z,45.47
2018-07-19T20:26:32.783Z,45.21
2018-07-19T20:29:01.161Z,44.97
2018-07-19T20:31:29.522Z,45.71
2018-07-19T20:33:57.844Z,45.84
2018-07-19T20:36:26.221Z,46.53
2018-07-19T20:38:54.557Z,46.46
2018-07-19T20:41:22.870Z,47.64
2018-07-19T20:43:51.235Z,48.77
2018-07-19T20:46:19.559Z,49.24
2018-07-19T20:48:47.911Z,49.50
2018-07-19T20:51:16.380Z,49.66
2018-07-19T20:53:44.810Z,50.79
2018-07-19T20:56:13.165Z,50.24
2018-07-19T20:58:41.535Z,50.32
2018-07-19T21:01:09.915Z,51.07
2018-07-19T21:03:38.287Z,50.92
2018-07-19T21:06:07.235Z,50.87
2018-07-19T21:08:35.564Z,51.17
2018-07-19T21:11:03.928Z,50.62
2018-07-19T21:13:32.246Z,51.70
2018-07-19T21:16:00.633Z,52.14
2018-07-19T21:18:28.973Z,52.57
2018-07-19T21:20:57.318Z,52.65
2018-07-19T21:23:25.623Z,53.30
2018-07-19T21:25:53.999Z,53.66
2018-07-19T21:28:22.328Z,54.57
2018-07-19T21:30:50.693Z,54.14
2018-07-19T21:33:19.020Z,54.89
2018-07-19T21:35:47.329Z,54.60
2018-07-19T21:38:15.662Z,54.78
2018-07-19T21:40:43.996Z,54.60
2018-07-19T21:43:12.417Z,54.71
2018-07-19T21:45:40.716Z,55.31
2018-07-19T21:48:09.067Z,54.86
2018-07-19T21:50:37.384Z,55.34
2018-07-19T21:53:05.763Z,55.10
2018-07-19T21:55:34.123Z,55.99
2018-07-19T21:58:02.504Z,56.46
2018-07-19T22:00:31.088Z,56.77
2018-07-19T22:03:01.272Z,57.02
2018-07-19T22:05:29.706Z,57.67
2018-07-19T22:07:58.054Z,57.19
2018-07-19T22:10:26.405Z,58.50
2018-07-19T22:12:54.740Z,58.33
2018-07-19T22:15:23.100Z,58.30
2018-07-19T22:17:51.429Z,58.41
2018-07-19T22:20:19.762Z,58.18
2018-07-19T22:22:48.088Z,57.35
2018-07-19T22:25:16.488Z,56.54
2018-07-19T22:27:44.840Z,56.86
2018-07-19T22:30:13.295Z,56.38
2018-07-19T22:32:41.659Z,57.42
2018-07-19T22:35:09.979Z,57.84
2018-07-19T22:37:38.331Z,56.87
2018-07-19T22:40:06.895Z,57.35
2018-07-19T22:42:35.225Z,57.45
2018-07-19T22:45:03.622Z,56.76
2018-07-19T22:47:32.008Z,57.24
2018-07-19T22:50:00.374Z,57.86
2018-07-19T22:52:28.680Z,57.01
2018-07-19T22:54:57.571Z,57.78
2018-07-19T22:57:25.917Z,57.36
2018-07-19T22:59:54.280Z,58.28
2018-07-19T23:02:22.613Z,58.12
2018-07-19T23:04:51.006Z,58.65
2018-07-19T23:07:19.368Z,58.96
2018-07-19T23:09:47.700Z,58.51
2018-07-19T23:12:16.093Z,59.23
2018-07-19T23:14:44.456Z,59.35
2018-07-19T23:17:12.883Z,59.15
2018-07-19T23:19:41.198Z,60.13
2018-07-19T23:22:09.540Z,59.42
2018-07-19T23:24:37.891Z,59.36
2018-07-19T23:27:06.243Z,60.19
2018-07-19T23:29:34.864Z,60.04
2018-07-19T23:32:03.839Z,59.73
2018-07-19T23:34:32.197Z,60.66
2018-07-19T23:37:04.590Z,59.74
2018-07-19T23:39:38.267Z,59.75
2018-07-19T23:42:37.432Z,59.81
2018-07-19T23:47:19.167Z,60.39
2018-07-19T23:49:47.471Z,60.30
2018-07-19T23:52:15.788Z,60.27
2018-07-19T23:54:44.103Z,60.69
2018-07-19T23:57:12.489Z,61.43
2018-07-19T23:59:40.863Z,61.19
